Track Прокофьев Димитрий

Time Latitude Longitude Accuracy (66% radius in meters) Altitude (meters) Speed (km/hour) Bearing (degrees) Battery (%) GPS flag
10:47:20 57.203815 60.118225 4 320 0 0 23 1 delete
10:47:17 57.203817 60.118206 3 320 0.68999999761581 86.900001525879 23 1 delete
10:47:10 57.203828 60.118060 4 323 0.28999999165535 66.300003051758 23 1 delete
10:47:08 57.203830 60.118041 4 322 0 0 23 1 delete
10:47:02 57.203820 60.117876 5 320 2.5899999141693 73 23 1 delete
10:46:59 57.203790 60.117713 4 321 3.2000000476837 67.699996948242 23 1 delete
10:46:56 57.203745 60.117509 4 318 2.6400001049042 63.200000762939 23 1 delete
10:46:52 57.203695 60.117348 4 316 2.0299999713898 64.800003051758 23 1 delete
10:46:48 57.203659 60.117153 4 313 2.8099999427795 77.900001525879 23 1 delete
10:46:45 57.203638 60.116973 4 314 2.9700000286102 84 23 1 delete
10:46:42 57.203639 60.116795 6 312 1.7599999904633 103.19999694824 23 1 delete
10:46:38 57.203641 60.116664 5 312 1.5199999809265 84.099998474121 23 1 delete
10:46:36 57.203636 60.116609 5 313 1.6000000238419 75 23 1 delete
10:46:32 57.203600 60.116451 6 316 1.3500000238419 78.800003051758 23 1 delete
10:46:28 57.203581 60.116266 6 308 1.7599999904633 111.09999847412 23 1 delete
10:46:23 57.203558 60.116078 7 310 1.6200000047684 40.599998474121 23 1 delete
10:46:19 57.203494 60.115943 8 310 2.2699999809265 21.60000038147 23 1 delete
10:46:17 57.203440 60.115883 9 311 3.8299999237061 27.89999961853 23 1 delete
10:46:16 57.203409 60.115837 9 312 3.6500000953674 36.799999237061 23 1 delete
10:46:13 57.203336 60.115690 9 314 4.3800001144409 40.400001525879 23 1 delete
10:46:10 57.203267 60.115532 6 316 3.2799999713898 52.700000762939 23 1 delete
10:46:07 57.203201 60.115361 7 308 3.3099999427795 50.400001525879 23 1 delete
10:46:04 57.203142 60.115186 8 310 3.7400000095367 63 23 1 delete
10:45:58 57.203129 60.114989 9 312 1.1599999666214 141.5 23 1 delete
10:45:56 57.203158 60.114974 10 313 1.8999999761581 170.30000305176 23 1 delete
10:45:53 57.203223 60.114974 10 315 1.0599999427795 162.80000305176 23 1 delete
10:45:46 57.203310 60.114973 8 301 0 0 23 1 delete
10:45:44 57.203323 60.114977 8 301 0.6700000166893 133.80000305176 23 1 delete
10:45:36 57.203417 60.114953 6 307 1.1100000143051 163.80000305176 23 1 delete
10:45:26 57.203514 60.114939 5 311 0.72000002861023 202.60000610352 23 1 delete
10:45:25 57.203526 60.114949 5 312 0.93999999761581 195.10000610352 23 1 delete
10:45:18 57.203615 60.114962 5 315 1.0299999713898 184.69999694824 23 1 delete
10:45:15 57.203655 60.114994 6 316 0.46000000834465 254 23 1 delete
10:45:10 57.203707 60.114988 9 314 1.1900000572205 91.5 23 1 delete
10:45:05 57.203673 60.114831 7 312 1.5599999427795 65.800003051758 23 1 delete
10:45:04 57.203664 60.114804 7 313 1.1599999666214 82.099998474121 23 1 delete
10:44:56 57.203727 60.114689 6 313 0.91000002622604 175.69999694824 23 1 delete
10:44:54 57.203756 60.114694 6 312 0.89999997615814 167.60000610352 23 1 delete
10:44:51 57.203824 60.114690 8 310 1.5099999904633 146.89999389648 23 1 delete
10:44:46 57.203911 60.114643 7 305 2.039999961853 187.30000305176 23 1 delete
10:44:44 57.203945 60.114671 9 306 2.0499999523163 217.69999694824 23 1 delete
10:44:41 57.203990 60.114752 9 306 1.4500000476837 208.30000305176 23 1 delete
10:44:35 57.204065 60.114878 9 309 2.5199999809265 227.80000305176 23 1 delete
10:44:33 57.204090 60.114947 8 310 2.3199999332428 227.39999389648 23 1 delete
10:44:31 57.204130 60.115021 7 311 2.3800001144409 195.5 23 1 delete
10:44:25 57.204227 60.115023 6 312 2.1700000762939 141.19999694824 23 1 delete
10:44:23 57.204282 60.114970 7 314 1.3300000429153 165.60000610352 23 1 delete
10:44:21 57.204337 60.114958 8 314 2.2799999713898 180.30000305176 23 1 delete
10:44:17 57.204453 60.114958 7 307 1.0099999904633 207.30000305176 23 1 delete
10:44:13 57.204510 60.114955 8 306 0.56000000238419 190.89999389648 23 1 delete